Details From KRDU - Raleigh Durham Intl
To TKPK - Saint Kitts Robert L Bradshaw
Flight Number -
Tags Generated
Created
Modified
Stats Distance 1,405 nm / 2,603 km
Max Altitude 0 ft / 0 m
Waypoints 3
Social Downloads 0
Likes 0
Share VATSIM

Download

Looking for another format? Having issues loading an existing format? Contact us
Advertisement - Login to hide

Notes

Generated

Route

KRDU TIKAL TKPK

ID Type Via Altitude Latitude Longitude Leg Dist Tot Dist Heading (true) Name
O KRDU APT - 0 ft / 0 m 35.87503˚ -78.78268˚ - 0 nm - -
TIKAL FIX - 0 ft / 0 m 17.47381˚ -62.81800˚ 1393 nm 1393 nm 138° / 146° -
O TKPK APT - 0 ft / 0 m 17.30550˚ -62.72783˚ 11 nm 1405 nm 153° / 153° -

Altitude Profile

Advertisement - Login to hide

Weather


0- 5 10 15 20 25 30 35+ Temperature / ° C

Clouds and Precipitation
Forecast for 2018-05-23 06:00 UTC. Updated 13 minutes ago

Ground ~20,000 ft ~40,000 ft Winds

KRDU

Details ICAO KRDU (RDU)
Name Raleigh Durham Intl
Region United States
Timezone America/New_York (UTC-4.0)
Stats Elevation 435 ft / 133 m (AMSL)
Location 35.875863° -78.785598°
Runways 3
Magnetic Variation 9.202° W

METAR

KRDU 230251Z 21010KT 10SM FEW060 SCT150 SCT250 24/20 A3008 RMK AO2 SLP180 T02390200 53016

Decode

TAF

TAF KRDU 222320Z 2300/2324 20005KT P6SM SCT250 FM230900 22006KT P6SM BKN090 FM231700 25007KT P6SM FEW090 FM232100 26005KT P6SM VCTS BKN050CB

Decode

Departure Runways

ID Width Length Bearing (true) Bearing (mag) Surface Threshold Offset Overrun Length
05L 150 ft / 46 m 10,002 ft / 3,049 m 45.02° 54.22° Concrete 0 ft / 0 m 200 ft / 61 m
05R 150 ft / 46 m 7,503 ft / 2,287 m 45.01° 54.21° Asphalt 0 ft / 0 m 200 ft / 61 m
14 100 ft / 30 m 3,571 ft / 1,088 m 135.28° 144.48° Asphalt 0 ft / 0 m 0 ft / 0 m
23L 150 ft / 46 m 7,503 ft / 2,287 m 225.02° 234.22° Asphalt 0 ft / 0 m 200 ft / 61 m
23R 150 ft / 46 m 10,002 ft / 3,049 m 225.03° 234.23° Concrete 0 ft / 0 m 200 ft / 61 m
32 100 ft / 30 m 3,571 ft / 1,088 m 315.28° 324.48° Asphalt 0 ft / 0 m 0 ft / 0 m

TKPK

Details ICAO TKPK (SKB)
Name St. Kitts/Bradshaw Intl
Region Saint Kitts and Nevis
Timezone America/St_Kitts (UTC-4.0)
Stats Elevation 170 ft / 52 m (AMSL)
Location 17.311194° -62.718666°
Runways 1
Magnetic Variation 14.463° W

METAR

Not found

TAF

TAF TKPK 222340Z 2300/2324 08013KT P6SM VCSH SCT019 SCT030 AMD NOT SKED 2302/2311

Decode

Destination Runways

ID Width Length Bearing (true) Bearing (mag) Surface Threshold Offset Overrun Length
07 148 ft / 45 m 7,620 ft / 2,323 m 56.95° 71.41° Asphalt 200 ft / 61 m 0 ft / 0 m
25 148 ft / 45 m 7,620 ft / 2,323 m 236.95° 251.41° Asphalt 0 ft / 0 m 0 ft / 0 m